sensor_id;sensor_type;location;lat;lon;timestamp;P1;durP1;ratioP1;P2;durP2;ratioP2
72085;SDS011;64750;52.134;5.424;2023-02-10T00:02:01;13.00;;;8.70;;
72085;SDS011;64750;52.134;5.424;2023-02-10T00:04:27;13.25;;;8.27;;
72085;SDS011;64750;52.134;5.424;2023-02-10T00:06:54;11.07;;;8.27;;
72085;SDS011;64750;52.134;5.424;2023-02-10T00:09:20;11.90;;;8.60;;
72085;SDS011;64750;52.134;5.424;2023-02-10T00:11:47;15.30;;;9.35;;
72085;SDS011;64750;52.134;5.424;2023-02-10T00:14:22;14.30;;;8.32;;
72085;SDS011;64750;52.134;5.424;2023-02-10T00:16:50;10.30;;;8.90;;
72085;SDS011;64750;52.134;5.424;2023-02-10T00:19:17;12.23;;;7.97;;
72085;SDS011;64750;52.134;5.424;2023-02-10T00:21:47;8.60;;;7.45;;
72085;SDS011;64750;52.134;5.424;2023-02-10T00:24:14;10.63;;;8.20;;
72085;SDS011;64750;52.134;5.424;2023-02-10T00:26:41;10.55;;;7.55;;
72085;SDS011;64750;52.134;5.424;2023-02-10T00:29:07;13.32;;;8.35;;
72085;SDS011;64750;52.134;5.424;2023-02-10T00:31:34;9.63;;;7.90;;
72085;SDS011;64750;52.134;5.424;2023-02-10T00:34:00;10.98;;;7.60;;
72085;SDS011;64750;52.134;5.424;2023-02-10T00:36:27;14.50;;;7.90;;
72085;SDS011;64750;52.134;5.424;2023-02-10T00:38:53;13.10;;;8.25;;
72085;SDS011;64750;52.134;5.424;2023-02-10T00:41:21;10.52;;;7.70;;
72085;SDS011;64750;52.134;5.424;2023-02-10T00:43:48;10.90;;;7.50;;
72085;SDS011;64750;52.134;5.424;2023-02-10T00:46:16;14.23;;;7.78;;
72085;SDS011;64750;52.134;5.424;2023-02-10T00:48:44;10.52;;;7.13;;
72085;SDS011;64750;52.134;5.424;2023-02-10T00:51:11;9.90;;;6.82;;
72085;SDS011;64750;52.134;5.424;2023-02-10T00:53:38;9.50;;;6.78;;
72085;SDS011;64750;52.134;5.424;2023-02-10T00:56:05;10.87;;;6.67;;
72085;SDS011;64750;52.134;5.424;2023-02-10T00:58:31;11.45;;;7.25;;
72085;SDS011;64750;52.134;5.424;2023-02-10T01:00:58;12.15;;;7.97;;
72085;SDS011;64750;52.134;5.424;2023-02-10T01:03:24;14.10;;;7.72;;
72085;SDS011;64750;52.134;5.424;2023-02-10T01:05:51;13.30;;;7.50;;
72085;SDS011;64750;52.134;5.424;2023-02-10T01:08:18;7.47;;;6.27;;
72085;SDS011;64750;52.134;5.424;2023-02-10T01:10:45;13.00;;;7.60;;
72085;SDS011;64750;52.134;5.424;2023-02-10T01:13:12;12.85;;;7.78;;
72085;SDS011;64750;52.134;5.424;2023-02-10T01:15:43;8.73;;;7.45;;
72085;SDS011;64750;52.134;5.424;2023-02-10T01:18:13;12.27;;;7.35;;
72085;SDS011;64750;52.134;5.424;2023-02-10T01:20:40;9.40;;;6.87;;
72085;SDS011;64750;52.134;5.424;2023-02-10T01:23:08;10.07;;;7.03;;
72085;SDS011;64750;52.134;5.424;2023-02-10T01:25:35;9.35;;;7.10;;
72085;SDS011;64750;52.134;5.424;2023-02-10T01:28:03;9.30;;;6.32;;
72085;SDS011;64750;52.134;5.424;2023-02-10T01:30:30;8.30;;;6.78;;
72085;SDS011;64750;52.134;5.424;2023-02-10T01:32:56;7.63;;;6.23;;
72085;SDS011;64750;52.134;5.424;2023-02-10T01:35:23;9.35;;;6.78;;
72085;SDS011;64750;52.134;5.424;2023-02-10T01:37:50;12.40;;;7.43;;
72085;SDS011;64750;52.134;5.424;2023-02-10T01:40:16;9.85;;;7.10;;
72085;SDS011;64750;52.134;5.424;2023-02-10T01:42:43;12.75;;;7.38;;
72085;SDS011;64750;52.134;5.424;2023-02-10T01:47:39;9.98;;;7.68;;
72085;SDS011;64750;52.134;5.424;2023-02-10T01:50:08;10.25;;;6.68;;
72085;SDS011;64750;52.134;5.424;2023-02-10T01:52:34;9.15;;;6.95;;
72085;SDS011;64750;52.134;5.424;2023-02-10T01:55:08;9.60;;;7.25;;
72085;SDS011;64750;52.134;5.424;2023-02-10T01:57:38;7.27;;;6.47;;
72085;SDS011;64750;52.134;5.424;2023-02-10T02:00:08;8.70;;;6.32;;
72085;SDS011;64750;52.134;5.424;2023-02-10T02:02:35;9.50;;;7.25;;
72085;SDS011;64750;52.134;5.424;2023-02-10T02:05:04;8.15;;;7.38;;
72085;SDS011;64750;52.134;5.424;2023-02-10T02:07:33;12.45;;;7.18;;
72085;SDS011;64750;52.134;5.424;2023-02-10T02:10:03;7.77;;;6.30;;
72085;SDS011;64750;52.134;5.424;2023-02-10T02:12:37;9.98;;;6.40;;
72085;SDS011;64750;52.134;5.424;2023-02-10T02:18:06;10.70;;;6.22;;
72085;SDS011;64750;52.134;5.424;2023-02-10T02:20:48;10.57;;;7.07;;
72085;SDS011;64750;52.134;5.424;2023-02-10T02:26:47;9.13;;;6.72;;
72085;SDS011;64750;52.134;5.424;2023-02-10T02:32:42;7.88;;;7.07;;
72085;SDS011;64750;52.134;5.424;2023-02-10T02:35:12;6.97;;;6.32;;
72085;SDS011;64750;52.134;5.424;2023-02-10T02:37:44;6.77;;;6.13;;
72085;SDS011;64750;52.134;5.424;2023-02-10T02:40:13;9.77;;;6.75;;
72085;SDS011;64750;52.134;5.424;2023-02-10T02:42:42;11.93;;;7.35;;
72085;SDS011;64750;52.134;5.424;2023-02-10T02:52:57;10.25;;;5.70;;
72085;SDS011;64750;52.134;5.424;2023-02-10T02:55:50;8.35;;;6.45;;
72085;SDS011;64750;52.134;5.424;2023-02-10T02:58:29;8.70;;;7.05;;
72085;SDS011;64750;52.134;5.424;2023-02-10T03:01:06;9.88;;;6.65;;
72085;SDS011;64750;52.134;5.424;2023-02-10T03:03:38;14.90;;;6.33;;
72085;SDS011;64750;52.134;5.424;2023-02-10T03:06:04;10.40;;;6.90;;
72085;SDS011;64750;52.134;5.424;2023-02-10T03:08:31;11.90;;;6.72;;
72085;SDS011;64750;52.134;5.424;2023-02-10T03:11:00;11.38;;;7.22;;
72085;SDS011;64750;52.134;5.424;2023-02-10T03:13:26;16.27;;;7.25;;
72085;SDS011;64750;52.134;5.424;2023-02-10T03:15:53;9.30;;;6.77;;
72085;SDS011;64750;52.134;5.424;2023-02-10T03:18:19;11.50;;;6.63;;
72085;SDS011;64750;52.134;5.424;2023-02-10T03:20:46;10.10;;;6.82;;
72085;SDS011;64750;52.134;5.424;2023-02-10T03:23:12;8.18;;;6.10;;
72085;SDS011;64750;52.134;5.424;2023-02-10T03:25:39;10.27;;;7.10;;
72085;SDS011;64750;52.134;5.424;2023-02-10T03:28:05;7.10;;;6.37;;
72085;SDS011;64750;52.134;5.424;2023-02-10T03:30:32;8.57;;;6.50;;
72085;SDS011;64750;52.134;5.424;2023-02-10T03:32:59;12.52;;;7.25;;
72085;SDS011;64750;52.134;5.424;2023-02-10T03:35:26;12.60;;;7.55;;
72085;SDS011;64750;52.134;5.424;2023-02-10T03:37:52;10.80;;;7.35;;
72085;SDS011;64750;52.134;5.424;2023-02-10T03:40:18;12.83;;;7.93;;
72085;SDS011;64750;52.134;5.424;2023-02-10T03:42:45;16.55;;;8.82;;
72085;SDS011;64750;52.134;5.424;2023-02-10T03:45:11;10.20;;;8.10;;
72085;SDS011;64750;52.134;5.424;2023-02-10T03:47:38;15.48;;;8.63;;
72085;SDS011;64750;52.134;5.424;2023-02-10T03:50:04;13.10;;;9.20;;
72085;SDS011;64750;52.134;5.424;2023-02-10T03:52:31;16.70;;;9.13;;
72085;SDS011;64750;52.134;5.424;2023-02-10T03:54:57;12.15;;;9.15;;
72085;SDS011;64750;52.134;5.424;2023-02-10T03:57:24;12.50;;;8.93;;
72085;SDS011;64750;52.134;5.424;2023-02-10T03:59:50;19.17;;;10.10;;
72085;SDS011;64750;52.134;5.424;2023-02-10T04:02:16;15.70;;;10.13;;
72085;SDS011;64750;52.134;5.424;2023-02-10T04:04:43;16.17;;;9.47;;
72085;SDS011;64750;52.134;5.424;2023-02-10T04:07:09;13.75;;;9.68;;
72085;SDS011;64750;52.134;5.424;2023-02-10T04:09:36;13.75;;;9.75;;
72085;SDS011;64750;52.134;5.424;2023-02-10T04:12:02;18.55;;;9.98;;
72085;SDS011;64750;52.134;5.424;2023-02-10T04:14:29;20.73;;;10.63;;
72085;SDS011;64750;52.134;5.424;2023-02-10T04:16:55;19.47;;;10.90;;
72085;SDS011;64750;52.134;5.424;2023-02-10T04:19:21;19.80;;;11.07;;
72085;SDS011;64750;52.134;5.424;2023-02-10T04:21:48;19.25;;;12.25;;
72085;SDS011;64750;52.134;5.424;2023-02-10T04:24:14;16.73;;;10.73;;
72085;SDS011;64750;52.134;5.424;2023-02-10T04:26:41;18.77;;;10.40;;
72085;SDS011;64750;52.134;5.424;2023-02-10T04:29:07;22.60;;;11.47;;
72085;SDS011;64750;52.134;5.424;2023-02-10T04:31:34;19.42;;;10.75;;
72085;SDS011;64750;52.134;5.424;2023-02-10T04:34:00;25.20;;;11.93;;
72085;SDS011;64750;52.134;5.424;2023-02-10T04:36:27;20.50;;;10.95;;
72085;SDS011;64750;52.134;5.424;2023-02-10T04:38:53;18.42;;;10.48;;
72085;SDS011;64750;52.134;5.424;2023-02-10T04:41:19;15.10;;;10.37;;
72085;SDS011;64750;52.134;5.424;2023-02-10T04:43:46;16.83;;;10.18;;
72085;SDS011;64750;52.134;5.424;2023-02-10T04:46:13;22.05;;;10.50;;
72085;SDS011;64750;52.134;5.424;2023-02-10T04:48:39;15.18;;;10.75;;
72085;SDS011;64750;52.134;5.424;2023-02-10T04:51:06;22.35;;;10.95;;
72085;SDS011;64750;52.134;5.424;2023-02-10T04:53:35;22.03;;;10.97;;
72085;SDS011;64750;52.134;5.424;2023-02-10T04:56:02;18.25;;;10.57;;
72085;SDS011;64750;52.134;5.424;2023-02-10T04:58:30;20.80;;;10.77;;
72085;SDS011;64750;52.134;5.424;2023-02-10T05:00:57;19.67;;;11.80;;
72085;SDS011;64750;52.134;5.424;2023-02-10T05:03:23;18.83;;;11.82;;
72085;SDS011;64750;52.134;5.424;2023-02-10T05:05:50;19.77;;;11.73;;
72085;SDS011;64750;52.134;5.424;2023-02-10T05:08:18;18.27;;;11.20;;
72085;SDS011;64750;52.134;5.424;2023-02-10T05:10:46;17.20;;;11.95;;
72085;SDS011;64750;52.134;5.424;2023-02-10T05:13:13;17.80;;;11.38;;
72085;SDS011;64750;52.134;5.424;2023-02-10T05:15:39;20.13;;;11.65;;
72085;SDS011;64750;52.134;5.424;2023-02-10T05:18:06;18.30;;;11.67;;
72085;SDS011;64750;52.134;5.424;2023-02-10T05:20:32;17.20;;;12.35;;
72085;SDS011;64750;52.134;5.424;2023-02-10T05:22:59;19.15;;;12.73;;
72085;SDS011;64750;52.134;5.424;2023-02-10T05:25:25;20.40;;;11.65;;
72085;SDS011;64750;52.134;5.424;2023-02-10T05:27:52;20.55;;;12.23;;
72085;SDS011;64750;52.134;5.424;2023-02-10T05:30:18;19.87;;;12.00;;
72085;SDS011;64750;52.134;5.424;2023-02-10T05:32:45;20.02;;;13.07;;
72085;SDS011;64750;52.134;5.424;2023-02-10T05:35:11;18.70;;;12.55;;
72085;SDS011;64750;52.134;5.424;2023-02-10T05:37:38;20.58;;;11.23;;
72085;SDS011;64750;52.134;5.424;2023-02-10T05:40:05;23.20;;;13.00;;
72085;SDS011;64750;52.134;5.424;2023-02-10T05:42:32;23.53;;;14.00;;
72085;SDS011;64750;52.134;5.424;2023-02-10T05:44:58;19.60;;;12.52;;
72085;SDS011;64750;52.134;5.424;2023-02-10T05:47:25;21.20;;;13.00;;
72085;SDS011;64750;52.134;5.424;2023-02-10T05:49:51;20.98;;;12.15;;
72085;SDS011;64750;52.134;5.424;2023-02-10T05:52:18;21.25;;;13.55;;
72085;SDS011;64750;52.134;5.424;2023-02-10T05:54:44;20.43;;;12.97;;
72085;SDS011;64750;52.134;5.424;2023-02-10T05:57:10;21.48;;;13.20;;
72085;SDS011;64750;52.134;5.424;2023-02-10T05:59:39;20.17;;;13.15;;
72085;SDS011;64750;52.134;5.424;2023-02-10T06:02:07;24.00;;;13.48;;
72085;SDS011;64750;52.134;5.424;2023-02-10T06:04:34;20.35;;;12.88;;
72085;SDS011;64750;52.134;5.424;2023-02-10T06:07:00;22.93;;;13.97;;
72085;SDS011;64750;52.134;5.424;2023-02-10T06:09:27;21.67;;;13.48;;
72085;SDS011;64750;52.134;5.424;2023-02-10T06:11:53;23.60;;;12.98;;
72085;SDS011;64750;52.134;5.424;2023-02-10T06:14:20;24.52;;;13.60;;
72085;SDS011;64750;52.134;5.424;2023-02-10T06:16:46;24.95;;;13.50;;
72085;SDS011;64750;52.134;5.424;2023-02-10T06:19:13;28.40;;;13.10;;
72085;SDS011;64750;52.134;5.424;2023-02-10T06:21:39;18.95;;;12.80;;
72085;SDS011;64750;52.134;5.424;2023-02-10T06:24:06;19.50;;;12.57;;
72085;SDS011;64750;52.134;5.424;2023-02-10T06:26:32;26.25;;;13.43;;
72085;SDS011;64750;52.134;5.424;2023-02-10T06:28:59;21.13;;;13.40;;
72085;SDS011;64750;52.134;5.424;2023-02-10T06:31:25;24.73;;;12.57;;
72085;SDS011;64750;52.134;5.424;2023-02-10T06:33:52;17.75;;;12.13;;
72085;SDS011;64750;52.134;5.424;2023-02-10T06:36:19;22.77;;;13.90;;
72085;SDS011;64750;52.134;5.424;2023-02-10T06:38:45;21.33;;;12.55;;
72085;SDS011;64750;52.134;5.424;2023-02-10T06:41:13;21.92;;;12.93;;
72085;SDS011;64750;52.134;5.424;2023-02-10T06:43:40;20.43;;;12.23;;
72085;SDS011;64750;52.134;5.424;2023-02-10T06:46:06;20.35;;;13.23;;
72085;SDS011;64750;52.134;5.424;2023-02-10T06:48:33;19.45;;;12.15;;
72085;SDS011;64750;52.134;5.424;2023-02-10T06:50:59;21.90;;;12.60;;
72085;SDS011;64750;52.134;5.424;2023-02-10T06:53:26;23.67;;;13.15;;
72085;SDS011;64750;52.134;5.424;2023-02-10T06:55:55;18.93;;;11.83;;
72085;SDS011;64750;52.134;5.424;2023-02-10T06:58:22;25.08;;;12.30;;
72085;SDS011;64750;52.134;5.424;2023-02-10T07:00:49;24.75;;;12.88;;
72085;SDS011;64750;52.134;5.424;2023-02-10T07:03:15;25.33;;;11.98;;
72085;SDS011;64750;52.134;5.424;2023-02-10T07:05:42;17.27;;;11.75;;
72085;SDS011;64750;52.134;5.424;2023-02-10T07:08:08;20.77;;;12.13;;
72085;SDS011;64750;52.134;5.424;2023-02-10T07:10:35;25.23;;;12.50;;
72085;SDS011;64750;52.134;5.424;2023-02-10T07:13:02;23.15;;;12.77;;
72085;SDS011;64750;52.134;5.424;2023-02-10T07:15:28;22.65;;;11.77;;
72085;SDS011;64750;52.134;5.424;2023-02-10T07:17:55;21.73;;;12.02;;
72085;SDS011;64750;52.134;5.424;2023-02-10T07:20:21;20.87;;;12.10;;
72085;SDS011;64750;52.134;5.424;2023-02-10T07:22:48;16.65;;;12.05;;
72085;SDS011;64750;52.134;5.424;2023-02-10T07:25:14;18.35;;;11.35;;
72085;SDS011;64750;52.134;5.424;2023-02-10T07:27:41;20.52;;;12.10;;
72085;SDS011;64750;52.134;5.424;2023-02-10T07:30:08;19.90;;;11.07;;
72085;SDS011;64750;52.134;5.424;2023-02-10T07:32:35;21.30;;;11.10;;
72085;SDS011;64750;52.134;5.424;2023-02-10T07:35:01;20.00;;;11.43;;
72085;SDS011;64750;52.134;5.424;2023-02-10T07:37:28;23.50;;;11.82;;
72085;SDS011;64750;52.134;5.424;2023-02-10T07:39:55;17.05;;;11.20;;
72085;SDS011;64750;52.134;5.424;2023-02-10T07:42:21;14.60;;;9.88;;
72085;SDS011;64750;52.134;5.424;2023-02-10T07:44:48;15.80;;;10.27;;
72085;SDS011;64750;52.134;5.424;2023-02-10T07:47:14;17.10;;;10.75;;
72085;SDS011;64750;52.134;5.424;2023-02-10T07:49:41;17.45;;;9.70;;
72085;SDS011;64750;52.134;5.424;2023-02-10T07:52:07;17.85;;;9.77;;
72085;SDS011;64750;52.134;5.424;2023-02-10T07:54:33;17.92;;;10.65;;
72085;SDS011;64750;52.134;5.424;2023-02-10T07:57:00;17.93;;;11.07;;
72085;SDS011;64750;52.134;5.424;2023-02-10T07:59:26;11.98;;;9.35;;
72085;SDS011;64750;52.134;5.424;2023-02-10T08:01:53;19.52;;;10.65;;
72085;SDS011;64750;52.134;5.424;2023-02-10T08:04:19;13.73;;;9.30;;
72085;SDS011;64750;52.134;5.424;2023-02-10T08:06:46;16.75;;;9.68;;
72085;SDS011;64750;52.134;5.424;2023-02-10T08:09:13;18.80;;;9.80;;
72085;SDS011;64750;52.134;5.424;2023-02-10T08:11:43;14.80;;;10.63;;
72085;SDS011;64750;52.134;5.424;2023-02-10T08:14:10;17.77;;;10.00;;
72085;SDS011;64750;52.134;5.424;2023-02-10T08:16:36;15.07;;;10.40;;
72085;SDS011;64750;52.134;5.424;2023-02-10T08:19:03;14.98;;;10.15;;
72085;SDS011;64750;52.134;5.424;2023-02-10T08:21:29;12.90;;;9.90;;
72085;SDS011;64750;52.134;5.424;2023-02-10T08:23:55;15.82;;;10.23;;
72085;SDS011;64750;52.134;5.424;2023-02-10T08:26:23;17.27;;;10.57;;
72085;SDS011;64750;52.134;5.424;2023-02-10T08:28:50;18.80;;;10.95;;
72085;SDS011;64750;52.134;5.424;2023-02-10T08:31:17;20.17;;;11.02;;
72085;SDS011;64750;52.134;5.424;2023-02-10T08:33:43;16.93;;;10.93;;
72085;SDS011;64750;52.134;5.424;2023-02-10T08:36:13;17.25;;;10.00;;
72085;SDS011;64750;52.134;5.424;2023-02-10T08:38:41;14.80;;;9.98;;
72085;SDS011;64750;52.134;5.424;2023-02-10T08:41:08;17.25;;;10.93;;
72085;SDS011;64750;52.134;5.424;2023-02-10T08:43:35;14.57;;;11.05;;
72085;SDS011;64750;52.134;5.424;2023-02-10T08:46:02;19.63;;;11.10;;
72085;SDS011;64750;52.134;5.424;2023-02-10T08:48:29;18.55;;;10.93;;
72085;SDS011;64750;52.134;5.424;2023-02-10T08:50:57;18.35;;;11.95;;
72085;SDS011;64750;52.134;5.424;2023-02-10T08:53:25;21.50;;;11.57;;
72085;SDS011;64750;52.134;5.424;2023-02-10T08:55:59;18.85;;;11.30;;
72085;SDS011;64750;52.134;5.424;2023-02-10T08:58:32;20.83;;;11.50;;
72085;SDS011;64750;52.134;5.424;2023-02-10T09:00:58;19.23;;;11.45;;
72085;SDS011;64750;52.134;5.424;2023-02-10T09:03:24;23.90;;;12.70;;
72085;SDS011;64750;52.134;5.424;2023-02-10T09:05:52;17.40;;;11.57;;
72085;SDS011;64750;52.134;5.424;2023-02-10T09:08:19;16.63;;;11.05;;
72085;SDS011;64750;52.134;5.424;2023-02-10T09:10:46;19.90;;;12.60;;
72085;SDS011;64750;52.134;5.424;2023-02-10T09:13:13;19.15;;;12.20;;
72085;SDS011;64750;52.134;5.424;2023-02-10T09:15:40;18.17;;;11.18;;
72085;SDS011;64750;52.134;5.424;2023-02-10T09:18:08;16.90;;;11.80;;
72085;SDS011;64750;52.134;5.424;2023-02-10T09:20:35;15.63;;;11.85;;
72085;SDS011;64750;52.134;5.424;2023-02-10T09:23:02;19.17;;;11.80;;
72085;SDS011;64750;52.134;5.424;2023-02-10T09:25:29;19.00;;;10.90;;
72085;SDS011;64750;52.134;5.424;2023-02-10T09:27:55;18.63;;;11.23;;
72085;SDS011;64750;52.134;5.424;2023-02-10T09:30:24;20.88;;;12.35;;
72085;SDS011;64750;52.134;5.424;2023-02-10T09:32:51;15.15;;;11.88;;
72085;SDS011;64750;52.134;5.424;2023-02-10T09:35:18;22.20;;;13.40;;
72085;SDS011;64750;52.134;5.424;2023-02-10T09:37:44;18.20;;;12.27;;
72085;SDS011;64750;52.134;5.424;2023-02-10T09:40:13;24.63;;;13.65;;
72085;SDS011;64750;52.134;5.424;2023-02-10T09:45:25;22.00;;;13.70;;
72085;SDS011;64750;52.134;5.424;2023-02-10T09:48:01;24.00;;;13.80;;
72085;SDS011;64750;52.134;5.424;2023-02-10T09:50:59;21.15;;;13.38;;
72085;SDS011;64750;52.134;5.424;2023-02-10T09:53:38;18.40;;;12.43;;
72085;SDS011;64750;52.134;5.424;2023-02-10T09:56:09;21.40;;;12.82;;
72085;SDS011;64750;52.134;5.424;2023-02-10T09:58:47;20.23;;;12.73;;
72085;SDS011;64750;52.134;5.424;2023-02-10T10:01:19;21.53;;;12.90;;
72085;SDS011;64750;52.134;5.424;2023-02-10T10:06:32;23.23;;;13.05;;
72085;SDS011;64750;52.134;5.424;2023-02-10T10:11:51;19.63;;;13.48;;
72085;SDS011;64750;52.134;5.424;2023-02-10T10:14:22;18.70;;;11.83;;
72085;SDS011;64750;52.134;5.424;2023-02-10T10:23:15;24.20;;;12.80;;
72085;SDS011;64750;52.134;5.424;2023-02-10T10:25:54;17.65;;;11.27;;
72085;SDS011;64750;52.134;5.424;2023-02-10T10:31:14;20.13;;;11.55;;
72085;SDS011;64750;52.134;5.424;2023-02-10T10:33:51;21.52;;;12.65;;
72085;SDS011;64750;52.134;5.424;2023-02-10T10:36:42;17.88;;;12.45;;
72085;SDS011;64750;52.134;5.424;2023-02-10T10:39:23;17.67;;;11.98;;
72085;SDS011;64750;52.134;5.424;2023-02-10T10:42:00;19.10;;;11.37;;
72085;SDS011;64750;52.134;5.424;2023-02-10T10:44:31;18.63;;;10.77;;
72085;SDS011;64750;52.134;5.424;2023-02-10T10:47:05;17.02;;;10.75;;
72085;SDS011;64750;52.134;5.424;2023-02-10T10:49:39;21.15;;;11.43;;
72085;SDS011;64750;52.134;5.424;2023-02-10T10:54:54;20.00;;;11.03;;
72085;SDS011;64750;52.134;5.424;2023-02-10T10:57:22;18.42;;;9.70;;
72085;SDS011;64750;52.134;5.424;2023-02-10T10:59:52;14.70;;;9.57;;
72085;SDS011;64750;52.134;5.424;2023-02-10T11:02:23;15.18;;;9.30;;
72085;SDS011;64750;52.134;5.424;2023-02-10T11:05:02;15.65;;;9.35;;
72085;SDS011;64750;52.134;5.424;2023-02-10T11:07:31;14.70;;;8.17;;
72085;SDS011;64750;52.134;5.424;2023-02-10T11:09:59;15.00;;;9.32;;
72085;SDS011;64750;52.134;5.424;2023-02-10T11:12:28;20.40;;;9.30;;
72085;SDS011;64750;52.134;5.424;2023-02-10T11:14:59;16.50;;;9.25;;
72085;SDS011;64750;52.134;5.424;2023-02-10T11:17:32;22.08;;;9.35;;
72085;SDS011;64750;52.134;5.424;2023-02-10T11:20:21;17.03;;;9.10;;
72085;SDS011;64750;52.134;5.424;2023-02-10T11:22:57;15.85;;;10.02;;
72085;SDS011;64750;52.134;5.424;2023-02-10T11:25:31;15.40;;;9.50;;
72085;SDS011;64750;52.134;5.424;2023-02-10T11:28:01;15.35;;;8.88;;
72085;SDS011;64750;52.134;5.424;2023-02-10T11:30:30;16.02;;;10.00;;
72085;SDS011;64750;52.134;5.424;2023-02-10T11:32:59;16.57;;;9.00;;
72085;SDS011;64750;52.134;5.424;2023-02-10T11:35:27;15.85;;;9.15;;
72085;SDS011;64750;52.134;5.424;2023-02-10T11:38:05;19.02;;;9.27;;
72085;SDS011;64750;52.134;5.424;2023-02-10T11:40:52;18.23;;;8.73;;
72085;SDS011;64750;52.134;5.424;2023-02-10T11:43:23;17.23;;;8.55;;
72085;SDS011;64750;52.134;5.424;2023-02-10T11:45:56;15.47;;;8.67;;
72085;SDS011;64750;52.134;5.424;2023-02-10T11:48:25;20.20;;;8.38;;
72085;SDS011;64750;52.134;5.424;2023-02-10T11:51:00;18.05;;;8.27;;
72085;SDS011;64750;52.134;5.424;2023-02-10T11:53:39;26.98;;;9.30;;
72085;SDS011;64750;52.134;5.424;2023-02-10T11:56:16;16.52;;;9.02;;
72085;SDS011;64750;52.134;5.424;2023-02-10T12:01:29;17.48;;;8.20;;
72085;SDS011;64750;52.134;5.424;2023-02-10T12:06:37;16.88;;;8.68;;
72085;SDS011;64750;52.134;5.424;2023-02-10T12:09:11;18.65;;;8.77;;
72085;SDS011;64750;52.134;5.424;2023-02-10T12:11:54;23.33;;;9.80;;
72085;SDS011;64750;52.134;5.424;2023-02-10T12:20:54;15.93;;;8.85;;
72085;SDS011;64750;52.134;5.424;2023-02-10T12:23:15;17.75;;;8.98;;
72085;SDS011;64750;52.134;5.424;2023-02-10T12:26:01;13.17;;;8.20;;
72085;SDS011;64750;52.134;5.424;2023-02-10T12:28:49;15.52;;;7.65;;
72085;SDS011;64750;52.134;5.424;2023-02-10T12:31:31;15.90;;;8.23;;
72085;SDS011;64750;52.134;5.424;2023-02-10T12:39:44;18.13;;;8.17;;
72085;SDS011;64750;52.134;5.424;2023-02-10T12:45:42;21.80;;;9.07;;
72085;SDS011;64750;52.134;5.424;2023-02-10T12:48:16;19.80;;;8.40;;
72085;SDS011;64750;52.134;5.424;2023-02-10T12:50:59;17.05;;;8.38;;
72085;SDS011;64750;52.134;5.424;2023-02-10T12:53:39;17.27;;;8.73;;
72085;SDS011;64750;52.134;5.424;2023-02-10T12:56:17;16.67;;;8.82;;
72085;SDS011;64750;52.134;5.424;2023-02-10T12:58:50;23.85;;;9.55;;
72085;SDS011;64750;52.134;5.424;2023-02-10T13:01:24;20.25;;;10.52;;
72085;SDS011;64750;52.134;5.424;2023-02-10T13:04:06;16.98;;;9.30;;
72085;SDS011;64750;52.134;5.424;2023-02-10T13:06:58;19.27;;;9.90;;
72085;SDS011;64750;52.134;5.424;2023-02-10T13:12:21;22.52;;;10.27;;
72085;SDS011;64750;52.134;5.424;2023-02-10T13:14:53;18.38;;;9.20;;
72085;SDS011;64750;52.134;5.424;2023-02-10T13:17:48;21.90;;;9.85;;
72085;SDS011;64750;52.134;5.424;2023-02-10T13:20:22;25.60;;;9.63;;
72085;SDS011;64750;52.134;5.424;2023-02-10T13:23:02;16.77;;;9.23;;
72085;SDS011;64750;52.134;5.424;2023-02-10T13:34:45;23.87;;;8.90;;
72085;SDS011;64750;52.134;5.424;2023-02-10T13:37:37;17.77;;;9.07;;
72085;SDS011;64750;52.134;5.424;2023-02-10T13:40:14;20.25;;;8.57;;
72085;SDS011;64750;52.134;5.424;2023-02-10T13:42:48;25.33;;;10.15;;
72085;SDS011;64750;52.134;5.424;2023-02-10T13:45:31;20.27;;;9.50;;
72085;SDS011;64750;52.134;5.424;2023-02-10T13:48:00;16.47;;;8.67;;
72085;SDS011;64750;52.134;5.424;2023-02-10T13:53:23;22.77;;;11.65;;
72085;SDS011;64750;52.134;5.424;2023-02-10T14:01:32;27.43;;;12.27;;
72085;SDS011;64750;52.134;5.424;2023-02-10T14:04:29;23.25;;;12.45;;
72085;SDS011;64750;52.134;5.424;2023-02-10T14:12:58;24.30;;;12.05;;
72085;SDS011;64750;52.134;5.424;2023-02-10T14:15:29;28.30;;;13.27;;
72085;SDS011;64750;52.134;5.424;2023-02-10T14:18:02;28.67;;;13.77;;
72085;SDS011;64750;52.134;5.424;2023-02-10T14:20:54;25.60;;;15.02;;
72085;SDS011;64750;52.134;5.424;2023-02-10T14:23:22;28.35;;;15.27;;
72085;SDS011;64750;52.134;5.424;2023-02-10T14:25:54;30.98;;;15.07;;
72085;SDS011;64750;52.134;5.424;2023-02-10T14:28:25;26.40;;;14.03;;
72085;SDS011;64750;52.134;5.424;2023-02-10T14:30:59;26.50;;;14.65;;
72085;SDS011;64750;52.134;5.424;2023-02-10T14:33:33;32.65;;;16.13;;
72085;SDS011;64750;52.134;5.424;2023-02-10T14:36:02;35.65;;;17.27;;
72085;SDS011;64750;52.134;5.424;2023-02-10T14:38:32;32.63;;;17.58;;
72085;SDS011;64750;52.134;5.424;2023-02-10T14:41:02;36.80;;;17.73;;
72085;SDS011;64750;52.134;5.424;2023-02-10T14:43:45;33.33;;;17.58;;
72085;SDS011;64750;52.134;5.424;2023-02-10T14:46:22;30.92;;;17.48;;
72085;SDS011;64750;52.134;5.424;2023-02-10T14:48:55;33.50;;;17.58;;
72085;SDS011;64750;52.134;5.424;2023-02-10T14:51:28;32.45;;;17.27;;
72085;SDS011;64750;52.134;5.424;2023-02-10T14:54:06;36.50;;;17.80;;
72085;SDS011;64750;52.134;5.424;2023-02-10T14:56:41;33.47;;;18.02;;
72085;SDS011;64750;52.134;5.424;2023-02-10T14:59:20;33.33;;;19.50;;
72085;SDS011;64750;52.134;5.424;2023-02-10T15:01:48;36.03;;;19.20;;
72085;SDS011;64750;52.134;5.424;2023-02-10T15:04:16;34.40;;;18.85;;
72085;SDS011;64750;52.134;5.424;2023-02-10T15:06:44;35.97;;;18.90;;
72085;SDS011;64750;52.134;5.424;2023-02-10T15:09:14;34.42;;;18.02;;
72085;SDS011;64750;52.134;5.424;2023-02-10T15:11:49;34.33;;;19.30;;
72085;SDS011;64750;52.134;5.424;2023-02-10T15:14:45;34.40;;;18.95;;
72085;SDS011;64750;52.134;5.424;2023-02-10T15:17:15;31.30;;;18.08;;
72085;SDS011;64750;52.134;5.424;2023-02-10T15:27:53;29.52;;;17.83;;
72085;SDS011;64750;52.134;5.424;2023-02-10T15:30:25;29.85;;;18.38;;
72085;SDS011;64750;52.134;5.424;2023-02-10T15:32:54;30.37;;;18.30;;
72085;SDS011;64750;52.134;5.424;2023-02-10T15:35:23;34.15;;;19.30;;
72085;SDS011;64750;52.134;5.424;2023-02-10T15:37:52;29.42;;;19.38;;
72085;SDS011;64750;52.134;5.424;2023-02-10T15:40:22;33.30;;;18.38;;
72085;SDS011;64750;52.134;5.424;2023-02-10T15:42:58;34.75;;;19.98;;
72085;SDS011;64750;52.134;5.424;2023-02-10T15:45:29;37.20;;;19.37;;
72085;SDS011;64750;52.134;5.424;2023-02-10T15:48:06;38.22;;;19.33;;
72085;SDS011;64750;52.134;5.424;2023-02-10T15:50:34;43.55;;;21.45;;
72085;SDS011;64750;52.134;5.424;2023-02-10T15:53:01;41.40;;;20.60;;
72085;SDS011;64750;52.134;5.424;2023-02-10T15:55:31;36.40;;;18.85;;
72085;SDS011;64750;52.134;5.424;2023-02-10T15:58:01;37.73;;;20.53;;
72085;SDS011;64750;52.134;5.424;2023-02-10T16:00:32;33.67;;;17.58;;
72085;SDS011;64750;52.134;5.424;2023-02-10T16:03:00;28.70;;;17.75;;
72085;SDS011;64750;52.134;5.424;2023-02-10T16:05:28;33.45;;;16.52;;
72085;SDS011;64750;52.134;5.424;2023-02-10T16:08:01;32.47;;;17.33;;
72085;SDS011;64750;52.134;5.424;2023-02-10T16:10:32;37.73;;;18.50;;
72085;SDS011;64750;52.134;5.424;2023-02-10T16:12:59;35.42;;;17.33;;
72085;SDS011;64750;52.134;5.424;2023-02-10T16:15:25;30.10;;;17.80;;
72085;SDS011;64750;52.134;5.424;2023-02-10T16:17:58;37.92;;;19.08;;
72085;SDS011;64750;52.134;5.424;2023-02-10T16:20:28;38.10;;;18.77;;